sensor_id;sensor_type;location;lat;lon;timestamp;P1;durP1;ratioP1;P2;durP2;ratioP2
56718;SDS011;42597;40.636;0.278;2022-10-19T00:01:36;18.73;;;7.18;;
56718;SDS011;42597;40.636;0.278;2022-10-19T00:04:01;16.38;;;7.90;;
56718;SDS011;42597;40.636;0.278;2022-10-19T00:06:29;20.20;;;8.68;;
56718;SDS011;42597;40.636;0.278;2022-10-19T00:08:58;12.13;;;7.53;;
56718;SDS011;42597;40.636;0.278;2022-10-19T00:11:25;12.98;;;7.28;;
56718;SDS011;42597;40.636;0.278;2022-10-19T00:13:52;12.57;;;6.30;;
56718;SDS011;42597;40.636;0.278;2022-10-19T00:16:19;14.18;;;8.65;;
56718;SDS011;42597;40.636;0.278;2022-10-19T00:18:46;13.68;;;7.65;;
56718;SDS011;42597;40.636;0.278;2022-10-19T00:21:13;11.00;;;7.03;;
56718;SDS011;42597;40.636;0.278;2022-10-19T00:23:41;11.60;;;7.88;;
56718;SDS011;42597;40.636;0.278;2022-10-19T00:26:07;13.30;;;7.55;;
56718;SDS011;42597;40.636;0.278;2022-10-19T00:28:33;12.35;;;7.00;;
56718;SDS011;42597;40.636;0.278;2022-10-19T00:31:06;11.55;;;6.72;;
56718;SDS011;42597;40.636;0.278;2022-10-19T00:33:34;17.25;;;7.45;;
56718;SDS011;42597;40.636;0.278;2022-10-19T00:36:00;22.55;;;9.25;;
56718;SDS011;42597;40.636;0.278;2022-10-19T00:38:26;18.60;;;9.25;;
56718;SDS011;42597;40.636;0.278;2022-10-19T00:40:52;19.25;;;8.95;;
56718;SDS011;42597;40.636;0.278;2022-10-19T00:43:19;20.45;;;7.57;;
56718;SDS011;42597;40.636;0.278;2022-10-19T00:45:47;14.00;;;7.25;;
56718;SDS011;42597;40.636;0.278;2022-10-19T00:48:19;16.90;;;7.93;;
56718;SDS011;42597;40.636;0.278;2022-10-19T00:50:49;17.02;;;8.55;;
56718;SDS011;42597;40.636;0.278;2022-10-19T00:53:17;19.20;;;7.97;;
56718;SDS011;42597;40.636;0.278;2022-10-19T00:55:42;22.48;;;8.23;;
56718;SDS011;42597;40.636;0.278;2022-10-19T00:58:09;10.40;;;6.43;;
56718;SDS011;42597;40.636;0.278;2022-10-19T01:00:35;15.63;;;6.97;;
56718;SDS011;42597;40.636;0.278;2022-10-19T01:03:01;12.60;;;7.20;;
56718;SDS011;42597;40.636;0.278;2022-10-19T01:05:27;8.73;;;6.18;;
56718;SDS011;42597;40.636;0.278;2022-10-19T01:07:54;15.80;;;7.13;;
56718;SDS011;42597;40.636;0.278;2022-10-19T01:13:13;9.88;;;6.13;;
56718;SDS011;42597;40.636;0.278;2022-10-19T01:16:19;9.25;;;5.38;;
56718;SDS011;42597;40.636;0.278;2022-10-19T01:30:41;13.52;;;7.05;;
56718;SDS011;42597;40.636;0.278;2022-10-19T01:41:32;12.23;;;5.97;;
56718;SDS011;42597;40.636;0.278;2022-10-19T01:46:53;14.00;;;6.30;;
56718;SDS011;42597;40.636;0.278;2022-10-19T01:49:33;9.23;;;6.25;;
56718;SDS011;42597;40.636;0.278;2022-10-19T01:52:08;13.27;;;6.10;;
56718;SDS011;42597;40.636;0.278;2022-10-19T01:54:39;11.70;;;6.60;;
56718;SDS011;42597;40.636;0.278;2022-10-19T01:57:09;26.52;;;8.25;;
56718;SDS011;42597;40.636;0.278;2022-10-19T01:59:39;12.20;;;6.95;;
56718;SDS011;42597;40.636;0.278;2022-10-19T02:02:06;13.57;;;5.97;;
56718;SDS011;42597;40.636;0.278;2022-10-19T02:04:34;16.08;;;8.07;;
56718;SDS011;42597;40.636;0.278;2022-10-19T02:07:02;11.47;;;6.33;;
56718;SDS011;42597;40.636;0.278;2022-10-19T02:09:32;12.70;;;6.55;;
56718;SDS011;42597;40.636;0.278;2022-10-19T02:11:59;20.88;;;8.25;;
56718;SDS011;42597;40.636;0.278;2022-10-19T02:14:28;28.55;;;8.68;;
56718;SDS011;42597;40.636;0.278;2022-10-19T02:16:58;9.30;;;6.18;;
56718;SDS011;42597;40.636;0.278;2022-10-19T02:19:38;17.48;;;6.78;;
56718;SDS011;42597;40.636;0.278;2022-10-19T02:22:04;24.00;;;7.32;;
56718;SDS011;42597;40.636;0.278;2022-10-19T02:24:30;9.70;;;6.22;;
56718;SDS011;42597;40.636;0.278;2022-10-19T02:26:56;14.73;;;7.00;;
56718;SDS011;42597;40.636;0.278;2022-10-19T02:29:24;9.02;;;6.35;;
56718;SDS011;42597;40.636;0.278;2022-10-19T02:31:50;11.15;;;6.10;;
56718;SDS011;42597;40.636;0.278;2022-10-19T02:34:16;9.93;;;7.28;;
56718;SDS011;42597;40.636;0.278;2022-10-19T02:36:41;16.15;;;7.63;;
56718;SDS011;42597;40.636;0.278;2022-10-19T02:39:07;13.77;;;7.53;;
56718;SDS011;42597;40.636;0.278;2022-10-19T02:41:41;14.38;;;7.03;;
56718;SDS011;42597;40.636;0.278;2022-10-19T02:44:14;15.57;;;7.25;;
56718;SDS011;42597;40.636;0.278;2022-10-19T02:46:52;12.10;;;7.13;;
56718;SDS011;42597;40.636;0.278;2022-10-19T02:49:22;12.88;;;6.05;;
56718;SDS011;42597;40.636;0.278;2022-10-19T02:51:56;22.83;;;8.30;;
56718;SDS011;42597;40.636;0.278;2022-10-19T02:54:30;13.60;;;10.02;;
56718;SDS011;42597;40.636;0.278;2022-10-19T02:56:56;14.55;;;6.18;;
56718;SDS011;42597;40.636;0.278;2022-10-19T02:59:22;16.55;;;7.65;;
56718;SDS011;42597;40.636;0.278;2022-10-19T03:01:48;16.13;;;7.80;;
56718;SDS011;42597;40.636;0.278;2022-10-19T03:04:13;11.27;;;6.57;;
56718;SDS011;42597;40.636;0.278;2022-10-19T03:06:39;13.30;;;6.43;;
56718;SDS011;42597;40.636;0.278;2022-10-19T03:09:05;17.48;;;7.05;;
56718;SDS011;42597;40.636;0.278;2022-10-19T03:11:30;11.50;;;6.50;;
56718;SDS011;42597;40.636;0.278;2022-10-19T03:13:56;10.85;;;6.25;;
56718;SDS011;42597;40.636;0.278;2022-10-19T03:16:21;12.82;;;6.75;;
56718;SDS011;42597;40.636;0.278;2022-10-19T03:18:47;10.77;;;7.40;;
56718;SDS011;42597;40.636;0.278;2022-10-19T03:21:13;12.13;;;6.68;;
56718;SDS011;42597;40.636;0.278;2022-10-19T03:23:39;10.45;;;6.63;;
56718;SDS011;42597;40.636;0.278;2022-10-19T03:26:06;15.52;;;7.03;;
56718;SDS011;42597;40.636;0.278;2022-10-19T03:28:32;14.15;;;5.95;;
56718;SDS011;42597;40.636;0.278;2022-10-19T03:30:58;13.48;;;7.65;;
56718;SDS011;42597;40.636;0.278;2022-10-19T03:33:24;17.17;;;8.93;;
56718;SDS011;42597;40.636;0.278;2022-10-19T03:35:50;18.65;;;6.97;;
56718;SDS011;42597;40.636;0.278;2022-10-19T03:38:16;9.32;;;6.20;;
56718;SDS011;42597;40.636;0.278;2022-10-19T03:40:41;12.15;;;7.78;;
56718;SDS011;42597;40.636;0.278;2022-10-19T03:43:07;13.98;;;7.80;;
56718;SDS011;42597;40.636;0.278;2022-10-19T03:45:33;11.45;;;6.85;;
56718;SDS011;42597;40.636;0.278;2022-10-19T03:47:58;10.20;;;6.82;;
56718;SDS011;42597;40.636;0.278;2022-10-19T03:50:24;16.83;;;6.63;;
56718;SDS011;42597;40.636;0.278;2022-10-19T03:52:49;12.10;;;6.07;;
56718;SDS011;42597;40.636;0.278;2022-10-19T03:55:15;14.38;;;6.95;;
56718;SDS011;42597;40.636;0.278;2022-10-19T03:57:41;9.90;;;6.25;;
56718;SDS011;42597;40.636;0.278;2022-10-19T04:00:08;8.85;;;6.25;;
56718;SDS011;42597;40.636;0.278;2022-10-19T04:02:34;12.90;;;7.38;;
56718;SDS011;42597;40.636;0.278;2022-10-19T04:05:00;18.65;;;7.97;;
56718;SDS011;42597;40.636;0.278;2022-10-19T04:07:25;20.70;;;7.90;;
56718;SDS011;42597;40.636;0.278;2022-10-19T04:09:51;15.75;;;6.20;;
56718;SDS011;42597;40.636;0.278;2022-10-19T04:12:16;14.95;;;6.05;;
56718;SDS011;42597;40.636;0.278;2022-10-19T04:14:42;14.57;;;5.82;;
56718;SDS011;42597;40.636;0.278;2022-10-19T04:17:08;19.10;;;7.47;;
56718;SDS011;42597;40.636;0.278;2022-10-19T04:19:33;16.52;;;8.18;;
56718;SDS011;42597;40.636;0.278;2022-10-19T04:21:59;19.35;;;7.88;;
56718;SDS011;42597;40.636;0.278;2022-10-19T04:24:24;17.15;;;7.25;;
56718;SDS011;42597;40.636;0.278;2022-10-19T04:26:51;17.48;;;7.82;;
56718;SDS011;42597;40.636;0.278;2022-10-19T04:29:19;10.77;;;6.43;;
56718;SDS011;42597;40.636;0.278;2022-10-19T04:31:49;16.52;;;8.93;;
56718;SDS011;42597;40.636;0.278;2022-10-19T04:34:17;15.88;;;8.00;;
56718;SDS011;42597;40.636;0.278;2022-10-19T04:36:43;19.05;;;8.60;;
56718;SDS011;42597;40.636;0.278;2022-10-19T04:39:09;17.40;;;7.28;;
56718;SDS011;42597;40.636;0.278;2022-10-19T04:41:36;16.70;;;8.85;;
56718;SDS011;42597;40.636;0.278;2022-10-19T04:44:02;27.15;;;9.50;;
56718;SDS011;42597;40.636;0.278;2022-10-19T04:46:30;17.08;;;6.68;;
56718;SDS011;42597;40.636;0.278;2022-10-19T04:48:56;12.90;;;5.90;;
56718;SDS011;42597;40.636;0.278;2022-10-19T04:51:22;11.65;;;5.68;;
56718;SDS011;42597;40.636;0.278;2022-10-19T04:53:49;10.20;;;5.10;;
56718;SDS011;42597;40.636;0.278;2022-10-19T04:56:18;9.70;;;5.75;;
56718;SDS011;42597;40.636;0.278;2022-10-19T04:58:46;8.98;;;6.05;;
56718;SDS011;42597;40.636;0.278;2022-10-19T05:01:13;13.77;;;6.65;;
56718;SDS011;42597;40.636;0.278;2022-10-19T05:06:06;17.95;;;6.78;;
56718;SDS011;42597;40.636;0.278;2022-10-19T05:08:33;11.63;;;5.80;;
56718;SDS011;42597;40.636;0.278;2022-10-19T05:11:00;11.20;;;6.63;;
56718;SDS011;42597;40.636;0.278;2022-10-19T05:13:33;13.35;;;6.60;;
56718;SDS011;42597;40.636;0.278;2022-10-19T05:16:02;17.08;;;6.43;;
56718;SDS011;42597;40.636;0.278;2022-10-19T05:18:29;17.75;;;7.75;;
56718;SDS011;42597;40.636;0.278;2022-10-19T05:21:04;18.08;;;7.80;;
56718;SDS011;42597;40.636;0.278;2022-10-19T05:23:37;22.73;;;9.23;;
56718;SDS011;42597;40.636;0.278;2022-10-19T05:26:08;18.25;;;8.10;;
56718;SDS011;42597;40.636;0.278;2022-10-19T05:28:38;14.73;;;6.70;;
56718;SDS011;42597;40.636;0.278;2022-10-19T05:31:10;13.13;;;6.63;;
56718;SDS011;42597;40.636;0.278;2022-10-19T05:33:38;10.25;;;5.85;;
56718;SDS011;42597;40.636;0.278;2022-10-19T05:36:25;16.98;;;5.93;;
56718;SDS011;42597;40.636;0.278;2022-10-19T05:38:59;17.20;;;8.98;;
56718;SDS011;42597;40.636;0.278;2022-10-19T05:41:30;13.52;;;6.25;;
56718;SDS011;42597;40.636;0.278;2022-10-19T05:43:57;15.00;;;7.88;;
56718;SDS011;42597;40.636;0.278;2022-10-19T05:46:24;11.25;;;5.82;;
56718;SDS011;42597;40.636;0.278;2022-10-19T05:48:50;10.60;;;5.68;;
56718;SDS011;42597;40.636;0.278;2022-10-19T05:51:17;14.98;;;9.10;;
56718;SDS011;42597;40.636;0.278;2022-10-19T05:53:44;17.20;;;6.65;;
56718;SDS011;42597;40.636;0.278;2022-10-19T05:56:17;11.02;;;6.15;;
56718;SDS011;42597;40.636;0.278;2022-10-19T05:58:44;12.05;;;6.15;;
56718;SDS011;42597;40.636;0.278;2022-10-19T06:01:11;11.27;;;5.65;;
56718;SDS011;42597;40.636;0.278;2022-10-19T06:03:37;8.88;;;6.68;;
56718;SDS011;42597;40.636;0.278;2022-10-19T06:06:03;19.50;;;7.72;;
56718;SDS011;42597;40.636;0.278;2022-10-19T06:08:29;23.80;;;9.40;;
56718;SDS011;42597;40.636;0.278;2022-10-19T06:11:05;18.73;;;8.45;;
56718;SDS011;42597;40.636;0.278;2022-10-19T06:13:32;16.70;;;7.03;;
56718;SDS011;42597;40.636;0.278;2022-10-19T06:15:58;20.23;;;10.45;;
56718;SDS011;42597;40.636;0.278;2022-10-19T06:18:23;16.50;;;7.70;;
56718;SDS011;42597;40.636;0.278;2022-10-19T06:20:50;14.68;;;7.95;;
56718;SDS011;42597;40.636;0.278;2022-10-19T06:23:16;18.17;;;7.68;;
56718;SDS011;42597;40.636;0.278;2022-10-19T06:25:42;16.67;;;6.85;;
56718;SDS011;42597;40.636;0.278;2022-10-19T06:28:08;11.38;;;6.30;;
56718;SDS011;42597;40.636;0.278;2022-10-19T06:30:36;19.58;;;6.80;;
56718;SDS011;42597;40.636;0.278;2022-10-19T06:33:03;22.83;;;8.65;;
56718;SDS011;42597;40.636;0.278;2022-10-19T06:35:28;18.00;;;8.00;;
56718;SDS011;42597;40.636;0.278;2022-10-19T06:37:57;14.93;;;7.25;;
56718;SDS011;42597;40.636;0.278;2022-10-19T06:40:23;26.73;;;8.05;;
56718;SDS011;42597;40.636;0.278;2022-10-19T06:42:49;19.33;;;7.18;;
56718;SDS011;42597;40.636;0.278;2022-10-19T06:45:15;14.18;;;7.68;;
56718;SDS011;42597;40.636;0.278;2022-10-19T06:47:41;13.68;;;6.22;;
56718;SDS011;42597;40.636;0.278;2022-10-19T06:50:06;13.52;;;6.25;;
56718;SDS011;42597;40.636;0.278;2022-10-19T06:52:32;15.20;;;6.70;;
56718;SDS011;42597;40.636;0.278;2022-10-19T06:54:59;23.08;;;7.47;;
56718;SDS011;42597;40.636;0.278;2022-10-19T06:57:24;14.27;;;7.22;;
56718;SDS011;42597;40.636;0.278;2022-10-19T06:59:50;8.93;;;5.28;;
56718;SDS011;42597;40.636;0.278;2022-10-19T07:02:16;14.27;;;6.78;;
56718;SDS011;42597;40.636;0.278;2022-10-19T07:04:41;12.68;;;6.28;;
56718;SDS011;42597;40.636;0.278;2022-10-19T07:07:07;21.25;;;6.97;;
56718;SDS011;42597;40.636;0.278;2022-10-19T07:09:33;22.40;;;7.07;;
56718;SDS011;42597;40.636;0.278;2022-10-19T07:11:59;20.52;;;7.60;;
56718;SDS011;42597;40.636;0.278;2022-10-19T07:14:24;19.92;;;8.63;;
56718;SDS011;42597;40.636;0.278;2022-10-19T07:16:52;15.30;;;7.33;;
56718;SDS011;42597;40.636;0.278;2022-10-19T07:19:18;21.67;;;8.60;;
56718;SDS011;42597;40.636;0.278;2022-10-19T07:21:44;17.92;;;7.97;;
56718;SDS011;42597;40.636;0.278;2022-10-19T07:24:10;20.10;;;6.85;;
56718;SDS011;42597;40.636;0.278;2022-10-19T07:26:35;12.35;;;6.65;;
56718;SDS011;42597;40.636;0.278;2022-10-19T07:29:02;12.60;;;4.90;;
56718;SDS011;42597;40.636;0.278;2022-10-19T07:31:28;24.58;;;7.28;;
56718;SDS011;42597;40.636;0.278;2022-10-19T07:33:56;21.10;;;7.38;;
56718;SDS011;42597;40.636;0.278;2022-10-19T07:36:23;14.43;;;7.45;;
56718;SDS011;42597;40.636;0.278;2022-10-19T07:38:49;21.20;;;9.20;;
56718;SDS011;42597;40.636;0.278;2022-10-19T07:41:16;15.20;;;6.78;;
56718;SDS011;42597;40.636;0.278;2022-10-19T07:43:43;17.73;;;7.50;;
56718;SDS011;42597;40.636;0.278;2022-10-19T07:46:11;21.50;;;8.10;;
56718;SDS011;42597;40.636;0.278;2022-10-19T07:48:42;24.60;;;7.75;;
56718;SDS011;42597;40.636;0.278;2022-10-19T07:51:08;17.67;;;7.60;;
56718;SDS011;42597;40.636;0.278;2022-10-19T07:53:35;18.80;;;6.93;;
56718;SDS011;42597;40.636;0.278;2022-10-19T07:56:05;26.75;;;9.02;;
56718;SDS011;42597;40.636;0.278;2022-10-19T07:58:33;24.20;;;8.10;;
56718;SDS011;42597;40.636;0.278;2022-10-19T08:01:00;27.10;;;9.73;;
56718;SDS011;42597;40.636;0.278;2022-10-19T08:03:26;25.25;;;7.85;;
56718;SDS011;42597;40.636;0.278;2022-10-19T08:05:52;20.77;;;8.82;;
56718;SDS011;42597;40.636;0.278;2022-10-19T08:08:17;21.42;;;8.18;;
56718;SDS011;42597;40.636;0.278;2022-10-19T08:10:43;17.17;;;8.15;;
56718;SDS011;42597;40.636;0.278;2022-10-19T08:13:08;10.52;;;7.38;;
56718;SDS011;42597;40.636;0.278;2022-10-19T08:15:34;27.27;;;11.57;;
56718;SDS011;42597;40.636;0.278;2022-10-19T08:17:59;21.40;;;12.13;;
56718;SDS011;42597;40.636;0.278;2022-10-19T08:20:25;39.40;;;12.77;;
56718;SDS011;42597;40.636;0.278;2022-10-19T08:22:50;20.75;;;9.90;;
56718;SDS011;42597;40.636;0.278;2022-10-19T08:25:16;16.10;;;6.40;;
56718;SDS011;42597;40.636;0.278;2022-10-19T08:27:41;11.70;;;7.03;;
56718;SDS011;42597;40.636;0.278;2022-10-19T08:30:07;11.75;;;6.40;;
56718;SDS011;42597;40.636;0.278;2022-10-19T08:32:33;16.73;;;8.60;;
56718;SDS011;42597;40.636;0.278;2022-10-19T08:34:58;15.25;;;7.95;;
56718;SDS011;42597;40.636;0.278;2022-10-19T08:37:24;25.42;;;9.30;;
56718;SDS011;42597;40.636;0.278;2022-10-19T08:39:49;16.33;;;8.65;;
56718;SDS011;42597;40.636;0.278;2022-10-19T08:42:15;20.30;;;9.80;;
56718;SDS011;42597;40.636;0.278;2022-10-19T08:47:38;13.45;;;6.57;;
56718;SDS011;42597;40.636;0.278;2022-10-19T08:50:26;16.70;;;9.10;;
56718;SDS011;42597;40.636;0.278;2022-10-19T08:53:15;10.25;;;6.75;;
56718;SDS011;42597;40.636;0.278;2022-10-19T08:55:54;14.63;;;11.27;;
56718;SDS011;42597;40.636;0.278;2022-10-19T09:01:55;11.07;;;5.60;;
56718;SDS011;42597;40.636;0.278;2022-10-19T09:04:27;22.92;;;9.80;;
56718;SDS011;42597;40.636;0.278;2022-10-19T09:10:09;19.70;;;11.15;;
56718;SDS011;42597;40.636;0.278;2022-10-19T09:15:25;20.33;;;13.00;;
56718;SDS011;42597;40.636;0.278;2022-10-19T09:18:39;14.30;;;9.60;;
56718;SDS011;42597;40.636;0.278;2022-10-19T09:26:24;25.75;;;13.05;;
56718;SDS011;42597;40.636;0.278;2022-10-19T09:31:33;19.02;;;11.70;;
56718;SDS011;42597;40.636;0.278;2022-10-19T09:34:04;32.88;;;17.65;;
56718;SDS011;42597;40.636;0.278;2022-10-19T09:36:39;27.20;;;16.75;;
56718;SDS011;42597;40.636;0.278;2022-10-19T09:39:10;23.20;;;11.13;;
56718;SDS011;42597;40.636;0.278;2022-10-19T09:41:42;27.88;;;17.83;;
56718;SDS011;42597;40.636;0.278;2022-10-19T09:44:14;20.67;;;11.93;;
56718;SDS011;42597;40.636;0.278;2022-10-19T09:49:16;17.38;;;10.05;;
56718;SDS011;42597;40.636;0.278;2022-10-19T09:52:02;24.63;;;10.02;;
56718;SDS011;42597;40.636;0.278;2022-10-19T09:54:32;12.18;;;7.20;;
56718;SDS011;42597;40.636;0.278;2022-10-19T09:57:02;10.35;;;7.07;;
56718;SDS011;42597;40.636;0.278;2022-10-19T09:59:30;17.98;;;6.28;;
56718;SDS011;42597;40.636;0.278;2022-10-19T10:02:10;13.02;;;7.95;;
56718;SDS011;42597;40.636;0.278;2022-10-19T10:04:45;10.65;;;7.35;;
56718;SDS011;42597;40.636;0.278;2022-10-19T10:07:18;12.63;;;6.00;;
56718;SDS011;42597;40.636;0.278;2022-10-19T10:09:44;12.52;;;8.65;;
56718;SDS011;42597;40.636;0.278;2022-10-19T10:12:12;18.90;;;12.98;;
56718;SDS011;42597;40.636;0.278;2022-10-19T10:14:39;20.13;;;11.18;;
56718;SDS011;42597;40.636;0.278;2022-10-19T10:17:06;16.20;;;12.68;;
56718;SDS011;42597;40.636;0.278;2022-10-19T10:19:48;25.75;;;14.68;;
56718;SDS011;42597;40.636;0.278;2022-10-19T10:22:42;11.80;;;8.30;;
56718;SDS011;42597;40.636;0.278;2022-10-19T10:25:23;16.58;;;10.25;;
56718;SDS011;42597;40.636;0.278;2022-10-19T10:27:59;21.80;;;16.90;;
56718;SDS011;42597;40.636;0.278;2022-10-19T10:30:34;18.42;;;11.80;;
56718;SDS011;42597;40.636;0.278;2022-10-19T10:33:01;37.47;;;20.80;;
56718;SDS011;42597;40.636;0.278;2022-10-19T10:35:34;26.05;;;12.02;;
56718;SDS011;42597;40.636;0.278;2022-10-19T10:38:07;14.38;;;9.93;;
56718;SDS011;42597;40.636;0.278;2022-10-19T10:40:37;31.52;;;20.38;;
56718;SDS011;42597;40.636;0.278;2022-10-19T10:43:25;15.25;;;10.25;;
56718;SDS011;42597;40.636;0.278;2022-10-19T10:45:58;32.13;;;21.73;;
56718;SDS011;42597;40.636;0.278;2022-10-19T10:48:35;32.92;;;22.77;;
56718;SDS011;42597;40.636;0.278;2022-10-19T10:51:07;42.85;;;20.95;;
56718;SDS011;42597;40.636;0.278;2022-10-19T10:54:05;32.10;;;20.17;;
56718;SDS011;42597;40.636;0.278;2022-10-19T10:56:40;13.80;;;9.63;;
56718;SDS011;42597;40.636;0.278;2022-10-19T11:01:39;29.27;;;20.55;;
56718;SDS011;42597;40.636;0.278;2022-10-19T11:04:17;45.58;;;24.13;;
56718;SDS011;42597;40.636;0.278;2022-10-19T11:06:50;26.95;;;18.20;;
56718;SDS011;42597;40.636;0.278;2022-10-19T11:12:11;31.42;;;20.70;;
56718;SDS011;42597;40.636;0.278;2022-10-19T11:14:45;38.83;;;23.77;;
56718;SDS011;42597;40.636;0.278;2022-10-19T11:17:21;33.90;;;20.80;;
56718;SDS011;42597;40.636;0.278;2022-10-19T11:19:51;22.30;;;15.88;;
56718;SDS011;42597;40.636;0.278;2022-10-19T11:30:11;34.15;;;20.83;;
56718;SDS011;42597;40.636;0.278;2022-10-19T11:32:57;33.03;;;20.02;;
56718;SDS011;42597;40.636;0.278;2022-10-19T11:35:58;26.80;;;15.43;;
56718;SDS011;42597;40.636;0.278;2022-10-19T11:52:18;34.55;;;23.73;;
56718;SDS011;42597;40.636;0.278;2022-10-19T12:00:39;29.60;;;22.67;;
56718;SDS011;42597;40.636;0.278;2022-10-19T12:03:32;15.60;;;11.77;;
56718;SDS011;42597;40.636;0.278;2022-10-19T12:06:38;41.65;;;26.25;;
56718;SDS011;42597;40.636;0.278;2022-10-19T12:11:58;25.95;;;16.95;;
56718;SDS011;42597;40.636;0.278;2022-10-19T12:14:34;28.67;;;20.73;;
56718;SDS011;42597;40.636;0.278;2022-10-19T12:17:25;21.08;;;16.27;;
56718;SDS011;42597;40.636;0.278;2022-10-19T12:19:55;38.58;;;25.40;;
56718;SDS011;42597;40.636;0.278;2022-10-19T12:22:27;35.22;;;25.67;;
56718;SDS011;42597;40.636;0.278;2022-10-19T12:27:29;33.50;;;25.70;;
56718;SDS011;42597;40.636;0.278;2022-10-19T12:30:02;32.92;;;24.13;;
56718;SDS011;42597;40.636;0.278;2022-10-19T12:38:38;42.22;;;25.15;;
56718;SDS011;42597;40.636;0.278;2022-10-19T12:43:16;35.63;;;21.00;;
56718;SDS011;42597;40.636;0.278;2022-10-19T12:45:50;19.45;;;14.52;;
56718;SDS011;42597;40.636;0.278;2022-10-19T12:48:24;17.30;;;11.02;;
56718;SDS011;42597;40.636;0.278;2022-10-19T12:56:29;39.63;;;24.83;;
56718;SDS011;42597;40.636;0.278;2022-10-19T13:01:23;34.72;;;22.58;;
56718;SDS011;42597;40.636;0.278;2022-10-19T13:04:12;35.30;;;22.05;;
56718;SDS011;42597;40.636;0.278;2022-10-19T13:06:49;38.83;;;23.80;;
56718;SDS011;42597;40.636;0.278;2022-10-19T13:14:44;33.13;;;20.88;;
56718;SDS011;42597;40.636;0.278;2022-10-19T13:17:36;32.63;;;20.20;;
56718;SDS011;42597;40.636;0.278;2022-10-19T13:27:49;34.47;;;18.63;;
56718;SDS011;42597;40.636;0.278;2022-10-19T13:38:31;37.83;;;26.05;;
56718;SDS011;42597;40.636;0.278;2022-10-19T13:41:10;50.07;;;27.47;;
56718;SDS011;42597;40.636;0.278;2022-10-19T13:49:13;26.00;;;18.60;;
56718;SDS011;42597;40.636;0.278;2022-10-19T13:54:34;34.65;;;22.02;;
56718;SDS011;42597;40.636;0.278;2022-10-19T14:11:12;35.67;;;21.65;;
56718;SDS011;42597;40.636;0.278;2022-10-19T14:13:40;20.92;;;13.38;;
56718;SDS011;42597;40.636;0.278;2022-10-19T14:16:05;36.25;;;22.27;;
56718;SDS011;42597;40.636;0.278;2022-10-19T14:18:32;40.92;;;23.63;;
56718;SDS011;42597;40.636;0.278;2022-10-19T14:21:00;27.65;;;15.73;;
56718;SDS011;42597;40.636;0.278;2022-10-19T14:23:29;30.80;;;17.48;;
56718;SDS011;42597;40.636;0.278;2022-10-19T14:26:10;34.03;;;21.45;;
56718;SDS011;42597;40.636;0.278;2022-10-19T14:28:39;43.30;;;24.20;;
56718;SDS011;42597;40.636;0.278;2022-10-19T14:31:06;38.03;;;23.73;;
56718;SDS011;42597;40.636;0.278;2022-10-19T14:33:35;41.15;;;24.08;;
56718;SDS011;42597;40.636;0.278;2022-10-19T14:36:04;40.78;;;25.05;;
56718;SDS011;42597;40.636;0.278;2022-10-19T14:38:32;37.50;;;21.90;;
56718;SDS011;42597;40.636;0.278;2022-10-19T14:41:03;27.27;;;18.98;;
56718;SDS011;42597;40.636;0.278;2022-10-19T14:43:30;23.42;;;17.40;;
56718;SDS011;42597;40.636;0.278;2022-10-19T14:48:36;25.33;;;18.92;;
56718;SDS011;42597;40.636;0.278;2022-10-19T14:53:41;35.63;;;19.27;;
56718;SDS011;42597;40.636;0.278;2022-10-19T14:56:19;33.63;;;17.92;;
56718;SDS011;42597;40.636;0.278;2022-10-19T15:01:53;38.05;;;21.27;;
56718;SDS011;42597;40.636;0.278;2022-10-19T15:04:23;35.70;;;19.13;;
56718;SDS011;42597;40.636;0.278;2022-10-19T15:06:51;30.30;;;19.83;;
56718;SDS011;42597;40.636;0.278;2022-10-19T15:09:23;49.55;;;20.05;;
56718;SDS011;42597;40.636;0.278;2022-10-19T15:11:51;38.13;;;20.48;;
56718;SDS011;42597;40.636;0.278;2022-10-19T15:14:20;32.15;;;21.13;;
56718;SDS011;42597;40.636;0.278;2022-10-19T15:16:52;30.00;;;18.38;;
56718;SDS011;42597;40.636;0.278;2022-10-19T15:19:44;29.95;;;17.10;;
56718;SDS011;42597;40.636;0.278;2022-10-19T15:27:37;35.97;;;15.70;;
56718;SDS011;42597;40.636;0.278;2022-10-19T15:30:05;46.13;;;22.70;;
56718;SDS011;42597;40.636;0.278;2022-10-19T15:35:31;39.95;;;19.88;;
56718;SDS011;42597;40.636;0.278;2022-10-19T15:37:59;19.60;;;11.50;;
56718;SDS011;42597;40.636;0.278;2022-10-19T15:40:31;15.05;;;10.98;;
56718;SDS011;42597;40.636;0.278;2022-10-19T15:42:58;30.88;;;16.08;;
56718;SDS011;42597;40.636;0.278;2022-10-19T15:45:28;31.77;;;16.60;;
56718;SDS011;42597;40.636;0.278;2022-10-19T15:50:53;19.08;;;11.43;;
56718;SDS011;42597;40.636;0.278;2022-10-19T15:53:20;25.85;;;15.05;;
56718;SDS011;42597;40.636;0.278;2022-10-19T15:55:46;20.52;;;11.50;;
56718;SDS011;42597;40.636;0.278;2022-10-19T15:58:12;20.33;;;13.27;;
56718;SDS011;42597;40.636;0.278;2022-10-19T16:00:39;16.08;;;10.20;;
56718;SDS011;42597;40.636;0.278;2022-10-19T16:03:05;22.50;;;12.70;;
56718;SDS011;42597;40.636;0.278;2022-10-19T16:05:32;31.95;;;16.63;;
56718;SDS011;42597;40.636;0.278;2022-10-19T16:07:59;30.80;;;18.08;;
56718;SDS011;42597;40.636;0.278;2022-10-19T16:10:25;25.33;;;15.35;;
56718;SDS011;42597;40.636;0.278;2022-10-19T16:12:52;36.17;;;16.73;;
56718;SDS011;42597;40.636;0.278;2022-10-19T16:15:21;26.20;;;14.50;;
56718;SDS011;42597;40.636;0.278;2022-10-19T16:17:48;18.60;;;12.65;;
56718;SDS011;42597;40.636;0.278;2022-10-19T16:20:16;30.63;;;16.58;;
56718;SDS011;42597;40.636;0.278;2022-10-19T16:22:42;29.70;;;15.63;;
56718;SDS011;42597;40.636;0.278;2022-10-19T16:25:09;34.88;;;18.17;;
56718;SDS011;42597;40.636;0.278;2022-10-19T16:27:35;20.92;;;15.18;;
56718;SDS011;42597;40.636;0.278;2022-10-19T16:30:01;34.70;;;21.67;;
56718;SDS011;42597;40.636;0.278;2022-10-19T16:32:27;32.05;;;16.80;;
56718;SDS011;42597;40.636;0.278;2022-10-19T16:34:53;27.02;;;15.38;;
56718;SDS011;42597;40.636;0.278;2022-10-19T16:37:18;37.72;;;18.63;;
56718;SDS011;42597;40.636;0.278;2022-10-19T16:39:44;54.15;;;23.50;;
56718;SDS011;42597;40.636;0.278;2022-10-19T16:42:09;40.22;;;25.27;;
56718;SDS011;42597;40.636;0.278;2022-10-19T16:44:35;51.53;;;28.58;;
56718;SDS011;42597;40.636;0.278;2022-10-19T16:47:00;37.92;;;22.15;;
56718;SDS011;42597;40.636;0.278;2022-10-19T16:49:26;31.60;;;19.23;;
56718;SDS011;42597;40.636;0.278;2022-10-19T16:51:51;37.05;;;19.40;;
56718;SDS011;42597;40.636;0.278;2022-10-19T16:54:17;40.92;;;21.35;;
56718;SDS011;42597;40.636;0.278;2022-10-19T16:56:43;35.75;;;19.95;;
56718;SDS011;42597;40.636;0.278;2022-10-19T16:59:11;37.00;;;20.95;;
56718;SDS011;42597;40.636;0.278;2022-10-19T17:01:38;37.58;;;20.20;;
56718;SDS011;42597;40.636;0.278;2022-10-19T17:04:04;43.60;;;20.77;;
56718;SDS011;42597;40.636;0.278;2022-10-19T17:06:31;23.20;;;17.20;;
56718;SDS011;42597;40.636;0.278;2022-10-19T17:08:57;35.85;;;21.20;;
56718;SDS011;42597;40.636;0.278;2022-10-19T17:11:27;32.63;;;19.25;;
56718;SDS011;42597;40.636;0.278;2022-10-19T17:13:55;49.58;;;21.23;;
56718;SDS011;42597;40.636;0.278;2022-10-19T17:16:23;34.72;;;18.65;;
56718;SDS011;42597;40.636;0.278;2022-10-19T17:18:49;41.05;;;19.17;;
56718;SDS011;42597;40.636;0.278;2022-10-19T17:21:18;35.20;;;17.48;;
56718;SDS011;42597;40.636;0.278;2022-10-19T17:23:45;31.67;;;17.05;;
56718;SDS011;42597;40.636;0.278;2022-10-19T17:26:11;25.73;;;16.02;;
56718;SDS011;42597;40.636;0.278;2022-10-19T17:28:37;37.78;;;18.13;;
56718;SDS011;42597;40.636;0.278;2022-10-19T17:31:05;34.33;;;17.70;;
56718;SDS011;42597;40.636;0.278;2022-10-19T17:33:32;33.60;;;15.30;;